<?xml version="1.0" encoding="UTF-8" standalone="no" ?>
<gpx xmlns="http://www.topografix.com/GPX/1/1" xmlns:xsi="http://www.w3.org/2001/XMLSchema-instance" xsi:schemaLocation="http://www.topografix.com/GPX/1/1 http://www.topografix.com/GPX/1/1/gpx.xsd" version="1.1" creator="VisuGPX - https://www.visugpx.com">
  <metadata>
    <name>COLMIANE STATION ST DALMAS CAIRE GROS 14 KM 820 M</name>
    <desc><![CDATA[COLMIANE. ST DALMAS.CAIRE GROS
14 KM 820 M]]></desc>
  </metadata>
  <trk>
    <name><![CDATA[--Saint-Martin-Vésubie-- OR-5404931:COLMIANE STATION ST DALMAS CAIRE GROS]]></name>
    <trkseg>
      <trkpt lat="44.07129" lon="7.2213">
        <ele>1511</ele>
        <time>2015-10-28T10:04:37Z</time>
      </trkpt>
      <trkpt lat="44.07114" lon="7.22077">
        <ele>1512</ele>
        <time>2015-10-28T10:06:37Z</time>
      </trkpt>
      <trkpt lat="44.07104" lon="7.22014">
        <ele>1512</ele>
        <time>2015-10-28T10:08:37Z</time>
      </trkpt>
      <trkpt lat="44.07092" lon="7.21961">
        <ele>1510</ele>
        <time>2015-10-28T10:10:37Z</time>
      </trkpt>
      <trkpt lat="44.0706" lon="7.21909">
        <ele>1516</ele>
        <time>2015-10-28T10:12:37Z</time>
      </trkpt>
      <trkpt lat="44.07035" lon="7.21866">
        <ele>1513</ele>
        <time>2015-10-28T10:14:37Z</time>
      </trkpt>
      <trkpt lat="44.06993" lon="7.2183">
        <ele>1518</ele>
        <time>2015-10-28T10:16:37Z</time>
      </trkpt>
      <trkpt lat="44.06938" lon="7.21811">
        <ele>1523</ele>
        <time>2015-10-28T10:18:37Z</time>
      </trkpt>
      <trkpt lat="44.06882" lon="7.21793">
        <ele>1522</ele>
        <time>2015-10-28T10:20:37Z</time>
      </trkpt>
      <trkpt lat="44.06802" lon="7.21789">
        <ele>1521</ele>
        <time>2015-10-28T10:22:37Z</time>
      </trkpt>
      <trkpt lat="44.06719" lon="7.21804">
        <ele>1517</ele>
        <time>2015-10-28T10:24:37Z</time>
      </trkpt>
      <trkpt lat="44.06653" lon="7.2186">
        <ele>1527</ele>
        <time>2015-10-28T10:26:37Z</time>
      </trkpt>
      <trkpt lat="44.06591" lon="7.21862">
        <ele>1525</ele>
        <time>2015-10-28T10:28:37Z</time>
      </trkpt>
      <trkpt lat="44.0658" lon="7.21751">
        <ele>1517</ele>
        <time>2015-10-28T10:30:37Z</time>
      </trkpt>
      <trkpt lat="44.06596" lon="7.21669">
        <ele>1506</ele>
        <time>2015-10-28T10:32:37Z</time>
      </trkpt>
      <trkpt lat="44.06596" lon="7.21613">
        <ele>1503</ele>
        <time>2015-10-28T10:34:37Z</time>
      </trkpt>
      <trkpt lat="44.06586" lon="7.21547">
        <ele>1499</ele>
        <time>2015-10-28T10:36:37Z</time>
      </trkpt>
      <trkpt lat="44.06568" lon="7.2151">
        <ele>1503</ele>
        <time>2015-10-28T10:38:37Z</time>
      </trkpt>
      <trkpt lat="44.06591" lon="7.21467">
        <ele>1482</ele>
        <time>2015-10-28T10:40:37Z</time>
      </trkpt>
      <trkpt lat="44.06616" lon="7.21384">
        <ele>1458</ele>
        <time>2015-10-28T10:42:37Z</time>
      </trkpt>
      <trkpt lat="44.06654" lon="7.21304">
        <ele>1432</ele>
        <time>2015-10-28T10:44:37Z</time>
      </trkpt>
      <trkpt lat="44.06625" lon="7.21178">
        <ele>1429</ele>
        <time>2015-10-28T10:46:37Z</time>
      </trkpt>
      <trkpt lat="44.06602" lon="7.21103">
        <ele>1419</ele>
        <time>2015-10-28T10:48:37Z</time>
      </trkpt>
      <trkpt lat="44.06565" lon="7.21066">
        <ele>1424</ele>
        <time>2015-10-28T10:50:37Z</time>
      </trkpt>
      <trkpt lat="44.06589" lon="7.21032">
        <ele>1407</ele>
        <time>2015-10-28T10:52:37Z</time>
      </trkpt>
      <trkpt lat="44.06577" lon="7.20989">
        <ele>1404</ele>
        <time>2015-10-28T10:54:37Z</time>
      </trkpt>
      <trkpt lat="44.06585" lon="7.20884">
        <ele>1385</ele>
        <time>2015-10-28T10:56:37Z</time>
      </trkpt>
      <trkpt lat="44.06611" lon="7.20798">
        <ele>1360</ele>
        <time>2015-10-28T10:58:37Z</time>
      </trkpt>
      <trkpt lat="44.06605" lon="7.20744">
        <ele>1353</ele>
        <time>2015-10-28T11:00:37Z</time>
      </trkpt>
      <trkpt lat="44.06611" lon="7.20695">
        <ele>1343</ele>
        <time>2015-10-28T11:02:37Z</time>
      </trkpt>
      <trkpt lat="44.06648" lon="7.20764">
        <ele>1342</ele>
        <time>2015-10-28T11:04:37Z</time>
      </trkpt>
      <trkpt lat="44.06654" lon="7.20661">
        <ele>1324</ele>
        <time>2015-10-28T11:06:37Z</time>
      </trkpt>
      <trkpt lat="44.06623" lon="7.20545">
        <ele>1308</ele>
        <time>2015-10-28T11:08:37Z</time>
      </trkpt>
      <trkpt lat="44.06616" lon="7.20448">
        <ele>1298</ele>
        <time>2015-10-28T11:10:37Z</time>
      </trkpt>
      <trkpt lat="44.06628" lon="7.20386">
        <ele>1294</ele>
        <time>2015-10-28T11:12:37Z</time>
      </trkpt>
      <trkpt lat="44.06612" lon="7.20347">
        <ele>1294</ele>
        <time>2015-10-28T11:14:37Z</time>
      </trkpt>
      <trkpt lat="44.06563" lon="7.20317">
        <ele>1296</ele>
        <time>2015-10-28T11:16:37Z</time>
      </trkpt>
      <trkpt lat="44.06526" lon="7.20349">
        <ele>1301</ele>
        <time>2015-10-28T11:18:37Z</time>
      </trkpt>
      <trkpt lat="44.06497" lon="7.20373">
        <ele>1305</ele>
        <time>2015-10-28T11:20:37Z</time>
      </trkpt>
      <trkpt lat="44.06384" lon="7.20349">
        <ele>1322</ele>
        <time>2015-10-28T11:22:37Z</time>
      </trkpt>
      <trkpt lat="44.06324" lon="7.20386">
        <ele>1334</ele>
        <time>2015-10-28T11:24:37Z</time>
      </trkpt>
      <trkpt lat="44.06262" lon="7.20429">
        <ele>1354</ele>
        <time>2015-10-28T11:26:37Z</time>
      </trkpt>
      <trkpt lat="44.06198" lon="7.20463">
        <ele>1377</ele>
        <time>2015-10-28T11:28:37Z</time>
      </trkpt>
      <trkpt lat="44.06201" lon="7.20596">
        <ele>1401</ele>
        <time>2015-10-28T11:30:37Z</time>
      </trkpt>
      <trkpt lat="44.06138" lon="7.2071">
        <ele>1434</ele>
        <time>2015-10-28T11:32:37Z</time>
      </trkpt>
      <trkpt lat="44.06068" lon="7.20776">
        <ele>1453</ele>
        <time>2015-10-28T11:34:37Z</time>
      </trkpt>
      <trkpt lat="44.06028" lon="7.2083">
        <ele>1459</ele>
        <time>2015-10-28T11:36:37Z</time>
      </trkpt>
      <trkpt lat="44.06064" lon="7.20914">
        <ele>1482</ele>
        <time>2015-10-28T11:38:37Z</time>
      </trkpt>
      <trkpt lat="44.06022" lon="7.20942">
        <ele>1491</ele>
        <time>2015-10-28T11:40:37Z</time>
      </trkpt>
      <trkpt lat="44.06044" lon="7.20946">
        <ele>1494</ele>
        <time>2015-10-28T11:42:37Z</time>
      </trkpt>
      <trkpt lat="44.05986" lon="7.21055">
        <ele>1540</ele>
        <time>2015-10-28T11:44:37Z</time>
      </trkpt>
      <trkpt lat="44.05917" lon="7.21212">
        <ele>1586</ele>
        <time>2015-10-28T11:46:37Z</time>
      </trkpt>
      <trkpt lat="44.05889" lon="7.21236">
        <ele>1590</ele>
        <time>2015-10-28T11:48:37Z</time>
      </trkpt>
      <trkpt lat="44.05866" lon="7.21298">
        <ele>1605</ele>
        <time>2015-10-28T11:50:37Z</time>
      </trkpt>
      <trkpt lat="44.05846" lon="7.21364">
        <ele>1626</ele>
        <time>2015-10-28T11:52:37Z</time>
      </trkpt>
      <trkpt lat="44.058" lon="7.21409">
        <ele>1646</ele>
        <time>2015-10-28T11:54:37Z</time>
      </trkpt>
      <trkpt lat="44.05752" lon="7.21457">
        <ele>1668</ele>
        <time>2015-10-28T11:56:37Z</time>
      </trkpt>
      <trkpt lat="44.05673" lon="7.21424">
        <ele>1686</ele>
        <time>2015-10-28T11:58:37Z</time>
      </trkpt>
      <trkpt lat="44.05623" lon="7.21364">
        <ele>1686</ele>
        <time>2015-10-28T12:00:37Z</time>
      </trkpt>
      <trkpt lat="44.05579" lon="7.2136">
        <ele>1703</ele>
        <time>2015-10-28T12:02:37Z</time>
      </trkpt>
      <trkpt lat="44.05542" lon="7.21326">
        <ele>1709</ele>
        <time>2015-10-28T12:04:37Z</time>
      </trkpt>
      <trkpt lat="44.05527" lon="7.21259">
        <ele>1698</ele>
        <time>2015-10-28T12:06:37Z</time>
      </trkpt>
      <trkpt lat="44.05476" lon="7.21238">
        <ele>1702</ele>
        <time>2015-10-28T12:08:37Z</time>
      </trkpt>
      <trkpt lat="44.05377" lon="7.21266">
        <ele>1718</ele>
        <time>2015-10-28T12:10:37Z</time>
      </trkpt>
      <trkpt lat="44.05276" lon="7.21268">
        <ele>1711</ele>
        <time>2015-10-28T12:12:37Z</time>
      </trkpt>
      <trkpt lat="44.05211" lon="7.21195">
        <ele>1708</ele>
        <time>2015-10-28T12:14:37Z</time>
      </trkpt>
      <trkpt lat="44.05171" lon="7.2116">
        <ele>1720</ele>
        <time>2015-10-28T12:16:37Z</time>
      </trkpt>
      <trkpt lat="44.05112" lon="7.21143">
        <ele>1723</ele>
        <time>2015-10-28T12:18:37Z</time>
      </trkpt>
      <trkpt lat="44.05141" lon="7.21103">
        <ele>1730</ele>
        <time>2015-10-28T12:20:37Z</time>
      </trkpt>
      <trkpt lat="44.05097" lon="7.21096">
        <ele>1736</ele>
        <time>2015-10-28T12:22:37Z</time>
      </trkpt>
      <trkpt lat="44.05118" lon="7.21073">
        <ele>1740</ele>
        <time>2015-10-28T12:24:37Z</time>
      </trkpt>
      <trkpt lat="44.05107" lon="7.21021">
        <ele>1760</ele>
        <time>2015-10-28T12:26:37Z</time>
      </trkpt>
      <trkpt lat="44.05124" lon="7.20963">
        <ele>1768</ele>
        <time>2015-10-28T12:28:37Z</time>
      </trkpt>
      <trkpt lat="44.05106" lon="7.20899">
        <ele>1795</ele>
        <time>2015-10-28T12:30:37Z</time>
      </trkpt>
      <trkpt lat="44.05169" lon="7.20783">
        <ele>1767</ele>
        <time>2015-10-28T12:32:37Z</time>
      </trkpt>
      <trkpt lat="44.05181" lon="7.20731">
        <ele>1762</ele>
        <time>2015-10-28T12:34:37Z</time>
      </trkpt>
      <trkpt lat="44.05135" lon="7.20671">
        <ele>1778</ele>
        <time>2015-10-28T12:36:37Z</time>
      </trkpt>
      <trkpt lat="44.05061" lon="7.20605">
        <ele>1791</ele>
        <time>2015-10-28T12:38:37Z</time>
      </trkpt>
      <trkpt lat="44.04987" lon="7.20558">
        <ele>1812</ele>
        <time>2015-10-28T12:40:37Z</time>
      </trkpt>
      <trkpt lat="44.0493" lon="7.20446">
        <ele>1818</ele>
        <time>2015-10-28T12:42:37Z</time>
      </trkpt>
      <trkpt lat="44.0491" lon="7.20373">
        <ele>1821</ele>
        <time>2015-10-28T12:44:37Z</time>
      </trkpt>
      <trkpt lat="44.04836" lon="7.20261">
        <ele>1850</ele>
        <time>2015-10-28T12:46:37Z</time>
      </trkpt>
      <trkpt lat="44.04813" lon="7.20216">
        <ele>1854</ele>
        <time>2015-10-28T12:48:37Z</time>
      </trkpt>
      <trkpt lat="44.04781" lon="7.20195">
        <ele>1871</ele>
        <time>2015-10-28T12:50:37Z</time>
      </trkpt>
      <trkpt lat="44.04762" lon="7.20148">
        <ele>1881</ele>
        <time>2015-10-28T12:52:37Z</time>
      </trkpt>
      <trkpt lat="44.04751" lon="7.20193">
        <ele>1891</ele>
        <time>2015-10-28T12:54:37Z</time>
      </trkpt>
      <trkpt lat="44.04739" lon="7.20141">
        <ele>1891</ele>
        <time>2015-10-28T12:56:37Z</time>
      </trkpt>
      <trkpt lat="44.04719" lon="7.20178">
        <ele>1895</ele>
        <time>2015-10-28T12:58:37Z</time>
      </trkpt>
      <trkpt lat="44.04702" lon="7.20139">
        <ele>1893</ele>
        <time>2015-10-28T13:00:37Z</time>
      </trkpt>
      <trkpt lat="44.04674" lon="7.20203">
        <ele>1909</ele>
        <time>2015-10-28T13:02:37Z</time>
      </trkpt>
      <trkpt lat="44.04625" lon="7.20259">
        <ele>1920</ele>
        <time>2015-10-28T13:04:37Z</time>
      </trkpt>
      <trkpt lat="44.04571" lon="7.20328">
        <ele>1931</ele>
        <time>2015-10-28T13:06:37Z</time>
      </trkpt>
      <trkpt lat="44.04591" lon="7.20324">
        <ele>1936</ele>
        <time>2015-10-28T13:08:37Z</time>
      </trkpt>
      <trkpt lat="44.04572" lon="7.20377">
        <ele>1948</ele>
        <time>2015-10-28T13:10:37Z</time>
      </trkpt>
      <trkpt lat="44.046" lon="7.20379">
        <ele>1958</ele>
        <time>2015-10-28T13:12:37Z</time>
      </trkpt>
      <trkpt lat="44.0458" lon="7.20455">
        <ele>1980</ele>
        <time>2015-10-28T13:14:37Z</time>
      </trkpt>
      <trkpt lat="44.04602" lon="7.20446">
        <ele>1983</ele>
        <time>2015-10-28T13:16:37Z</time>
      </trkpt>
      <trkpt lat="44.04602" lon="7.20474">
        <ele>1995</ele>
        <time>2015-10-28T13:18:37Z</time>
      </trkpt>
      <trkpt lat="44.04574" lon="7.20527">
        <ele>2005</ele>
        <time>2015-10-28T13:20:37Z</time>
      </trkpt>
      <trkpt lat="44.04608" lon="7.20525">
        <ele>2016</ele>
        <time>2015-10-28T13:22:37Z</time>
      </trkpt>
      <trkpt lat="44.04586" lon="7.20549">
        <ele>2016</ele>
        <time>2015-10-28T13:24:37Z</time>
      </trkpt>
      <trkpt lat="44.04572" lon="7.20592">
        <ele>2027</ele>
        <time>2015-10-28T13:26:37Z</time>
      </trkpt>
      <trkpt lat="44.04631" lon="7.20577">
        <ele>2039</ele>
        <time>2015-10-28T13:28:37Z</time>
      </trkpt>
      <trkpt lat="44.046" lon="7.20658">
        <ele>2056</ele>
        <time>2015-10-28T13:30:37Z</time>
      </trkpt>
      <trkpt lat="44.04554" lon="7.20708">
        <ele>2058</ele>
        <time>2015-10-28T13:32:37Z</time>
      </trkpt>
      <trkpt lat="44.04606" lon="7.20697">
        <ele>2060</ele>
        <time>2015-10-28T13:34:37Z</time>
      </trkpt>
      <trkpt lat="44.04648" lon="7.20667">
        <ele>2067</ele>
        <time>2015-10-28T13:36:37Z</time>
      </trkpt>
      <trkpt lat="44.04685" lon="7.20678">
        <ele>2058</ele>
        <time>2015-10-28T13:38:37Z</time>
      </trkpt>
      <trkpt lat="44.04663" lon="7.20667">
        <ele>2069</ele>
        <time>2015-10-28T13:40:37Z</time>
      </trkpt>
      <trkpt lat="44.04634" lon="7.20678">
        <ele>2064</ele>
        <time>2015-10-28T13:42:37Z</time>
      </trkpt>
      <trkpt lat="44.04591" lon="7.20703">
        <ele>2059</ele>
        <time>2015-10-28T13:44:37Z</time>
      </trkpt>
      <trkpt lat="44.04563" lon="7.20707">
        <ele>2058</ele>
        <time>2015-10-28T13:46:37Z</time>
      </trkpt>
      <trkpt lat="44.04562" lon="7.20695">
        <ele>2057</ele>
        <time>2015-10-28T13:48:37Z</time>
      </trkpt>
      <trkpt lat="44.04602" lon="7.2065">
        <ele>2054</ele>
        <time>2015-10-28T13:50:37Z</time>
      </trkpt>
      <trkpt lat="44.04626" lon="7.20586">
        <ele>2040</ele>
        <time>2015-10-28T13:52:37Z</time>
      </trkpt>
      <trkpt lat="44.04625" lon="7.20575">
        <ele>2037</ele>
        <time>2015-10-28T13:54:37Z</time>
      </trkpt>
      <trkpt lat="44.04581" lon="7.20588">
        <ele>2027</ele>
        <time>2015-10-28T13:56:37Z</time>
      </trkpt>
      <trkpt lat="44.04573" lon="7.2058">
        <ele>2023</ele>
        <time>2015-10-28T13:58:37Z</time>
      </trkpt>
      <trkpt lat="44.04593" lon="7.2054">
        <ele>2016</ele>
        <time>2015-10-28T14:00:37Z</time>
      </trkpt>
      <trkpt lat="44.04602" lon="7.20532">
        <ele>2016</ele>
        <time>2015-10-28T14:02:37Z</time>
      </trkpt>
      <trkpt lat="44.046" lon="7.20523">
        <ele>2013</ele>
        <time>2015-10-28T14:04:37Z</time>
      </trkpt>
      <trkpt lat="44.0458" lon="7.2053">
        <ele>2008</ele>
        <time>2015-10-28T14:06:37Z</time>
      </trkpt>
      <trkpt lat="44.04578" lon="7.20517">
        <ele>2003</ele>
        <time>2015-10-28T14:08:37Z</time>
      </trkpt>
      <trkpt lat="44.04598" lon="7.20482">
        <ele>1997</ele>
        <time>2015-10-28T14:10:37Z</time>
      </trkpt>
      <trkpt lat="44.04603" lon="7.20462">
        <ele>1991</ele>
        <time>2015-10-28T14:12:37Z</time>
      </trkpt>
      <trkpt lat="44.04602" lon="7.20438">
        <ele>1980</ele>
        <time>2015-10-28T14:14:37Z</time>
      </trkpt>
      <trkpt lat="44.04587" lon="7.20452">
        <ele>1982</ele>
        <time>2015-10-28T14:16:37Z</time>
      </trkpt>
      <trkpt lat="44.04582" lon="7.20444">
        <ele>1977</ele>
        <time>2015-10-28T14:18:37Z</time>
      </trkpt>
      <trkpt lat="44.04597" lon="7.20388">
        <ele>1960</ele>
        <time>2015-10-28T14:20:37Z</time>
      </trkpt>
      <trkpt lat="44.04593" lon="7.20376">
        <ele>1955</ele>
        <time>2015-10-28T14:22:37Z</time>
      </trkpt>
      <trkpt lat="44.0458" lon="7.20378">
        <ele>1952</ele>
        <time>2015-10-28T14:24:37Z</time>
      </trkpt>
      <trkpt lat="44.04575" lon="7.20368">
        <ele>1946</ele>
        <time>2015-10-28T14:26:37Z</time>
      </trkpt>
      <trkpt lat="44.04585" lon="7.20337">
        <ele>1940</ele>
        <time>2015-10-28T14:28:37Z</time>
      </trkpt>
      <trkpt lat="44.04581" lon="7.20327">
        <ele>1935</ele>
        <time>2015-10-28T14:30:37Z</time>
      </trkpt>
      <trkpt lat="44.04565" lon="7.20327">
        <ele>1928</ele>
        <time>2015-10-28T14:32:37Z</time>
      </trkpt>
      <trkpt lat="44.04578" lon="7.20316">
        <ele>1929</ele>
        <time>2015-10-28T14:34:37Z</time>
      </trkpt>
      <trkpt lat="44.04666" lon="7.20211">
        <ele>1913</ele>
        <time>2015-10-28T14:36:37Z</time>
      </trkpt>
      <trkpt lat="44.04679" lon="7.20192">
        <ele>1905</ele>
        <time>2015-10-28T14:38:37Z</time>
      </trkpt>
      <trkpt lat="44.047" lon="7.20147">
        <ele>1894</ele>
        <time>2015-10-28T14:40:37Z</time>
      </trkpt>
      <trkpt lat="44.04707" lon="7.20148">
        <ele>1893</ele>
        <time>2015-10-28T14:42:37Z</time>
      </trkpt>
      <trkpt lat="44.04716" lon="7.20169">
        <ele>1893</ele>
        <time>2015-10-28T14:44:37Z</time>
      </trkpt>
      <trkpt lat="44.04726" lon="7.20168">
        <ele>1891</ele>
        <time>2015-10-28T14:46:37Z</time>
      </trkpt>
      <trkpt lat="44.04728" lon="7.20158">
        <ele>1891</ele>
        <time>2015-10-28T14:48:37Z</time>
      </trkpt>
      <trkpt lat="44.04733" lon="7.20146">
        <ele>1891</ele>
        <time>2015-10-28T14:50:37Z</time>
      </trkpt>
      <trkpt lat="44.04742" lon="7.2015">
        <ele>1890</ele>
        <time>2015-10-28T14:52:37Z</time>
      </trkpt>
      <trkpt lat="44.04747" lon="7.20182">
        <ele>1891</ele>
        <time>2015-10-28T14:54:37Z</time>
      </trkpt>
      <trkpt lat="44.04756" lon="7.20181">
        <ele>1886</ele>
        <time>2015-10-28T14:56:37Z</time>
      </trkpt>
      <trkpt lat="44.04758" lon="7.20155">
        <ele>1883</ele>
        <time>2015-10-28T14:58:37Z</time>
      </trkpt>
      <trkpt lat="44.04766" lon="7.20156">
        <ele>1878</ele>
        <time>2015-10-28T15:00:37Z</time>
      </trkpt>
      <trkpt lat="44.04788" lon="7.20199">
        <ele>1867</ele>
        <time>2015-10-28T15:02:37Z</time>
      </trkpt>
      <trkpt lat="44.04807" lon="7.2021">
        <ele>1857</ele>
        <time>2015-10-28T15:04:37Z</time>
      </trkpt>
      <trkpt lat="44.04842" lon="7.2027">
        <ele>1848</ele>
        <time>2015-10-28T15:06:37Z</time>
      </trkpt>
      <trkpt lat="44.04913" lon="7.20382">
        <ele>1820</ele>
        <time>2015-10-28T15:08:37Z</time>
      </trkpt>
      <trkpt lat="44.04936" lon="7.20453">
        <ele>1816</ele>
        <time>2015-10-28T15:10:37Z</time>
      </trkpt>
      <trkpt lat="44.04993" lon="7.20563">
        <ele>1809</ele>
        <time>2015-10-28T15:12:37Z</time>
      </trkpt>
      <trkpt lat="44.05069" lon="7.20611">
        <ele>1789</ele>
        <time>2015-10-28T15:14:37Z</time>
      </trkpt>
      <trkpt lat="44.05144" lon="7.20678">
        <ele>1774</ele>
        <time>2015-10-28T15:16:37Z</time>
      </trkpt>
      <trkpt lat="44.05177" lon="7.20722">
        <ele>1763</ele>
        <time>2015-10-28T15:18:37Z</time>
      </trkpt>
      <trkpt lat="44.05181" lon="7.20739">
        <ele>1762</ele>
        <time>2015-10-28T15:20:37Z</time>
      </trkpt>
      <trkpt lat="44.05166" lon="7.2079">
        <ele>1768</ele>
        <time>2015-10-28T15:22:37Z</time>
      </trkpt>
      <trkpt lat="44.05111" lon="7.2089">
        <ele>1793</ele>
        <time>2015-10-28T15:24:37Z</time>
      </trkpt>
      <trkpt lat="44.05109" lon="7.20912">
        <ele>1790</ele>
        <time>2015-10-28T15:26:37Z</time>
      </trkpt>
      <trkpt lat="44.05121" lon="7.20952">
        <ele>1772</ele>
        <time>2015-10-28T15:28:37Z</time>
      </trkpt>
      <trkpt lat="44.05122" lon="7.20973">
        <ele>1767</ele>
        <time>2015-10-28T15:30:37Z</time>
      </trkpt>
      <trkpt lat="44.05108" lon="7.21011">
        <ele>1763</ele>
        <time>2015-10-28T15:32:37Z</time>
      </trkpt>
      <trkpt lat="44.05108" lon="7.21035">
        <ele>1755</ele>
        <time>2015-10-28T15:34:37Z</time>
      </trkpt>
      <trkpt lat="44.05117" lon="7.21063">
        <ele>1743</ele>
        <time>2015-10-28T15:36:37Z</time>
      </trkpt>
      <trkpt lat="44.05112" lon="7.21083">
        <ele>1738</ele>
        <time>2015-10-28T15:38:37Z</time>
      </trkpt>
      <trkpt lat="44.05103" lon="7.2109">
        <ele>1737</ele>
        <time>2015-10-28T15:40:37Z</time>
      </trkpt>
      <trkpt lat="44.05107" lon="7.21099">
        <ele>1734</ele>
        <time>2015-10-28T15:42:37Z</time>
      </trkpt>
      <trkpt lat="44.05134" lon="7.211">
        <ele>1732</ele>
        <time>2015-10-28T15:44:37Z</time>
      </trkpt>
      <trkpt lat="44.05135" lon="7.21112">
        <ele>1729</ele>
        <time>2015-10-28T15:46:37Z</time>
      </trkpt>
      <trkpt lat="44.05118" lon="7.21134">
        <ele>1725</ele>
        <time>2015-10-28T15:48:37Z</time>
      </trkpt>
      <trkpt lat="44.05121" lon="7.21147">
        <ele>1722</ele>
        <time>2015-10-28T15:50:37Z</time>
      </trkpt>
      <trkpt lat="44.05178" lon="7.21165">
        <ele>1718</ele>
        <time>2015-10-28T15:52:37Z</time>
      </trkpt>
      <trkpt lat="44.05218" lon="7.21204">
        <ele>1707</ele>
        <time>2015-10-28T15:54:37Z</time>
      </trkpt>
      <trkpt lat="44.05267" lon="7.21259">
        <ele>1711</ele>
        <time>2015-10-28T15:56:37Z</time>
      </trkpt>
      <trkpt lat="44.05286" lon="7.21287">
        <ele>1710</ele>
        <time>2015-10-28T15:58:37Z</time>
      </trkpt>
      <trkpt lat="44.05299" lon="7.21331">
        <ele>1711</ele>
        <time>2015-10-28T16:00:37Z</time>
      </trkpt>
      <trkpt lat="44.05304" lon="7.214">
        <ele>1706</ele>
        <time>2015-10-28T16:02:37Z</time>
      </trkpt>
      <trkpt lat="44.05333" lon="7.21496">
        <ele>1710</ele>
        <time>2015-10-28T16:04:37Z</time>
      </trkpt>
      <trkpt lat="44.0534" lon="7.21603">
        <ele>1704</ele>
        <time>2015-10-28T16:06:37Z</time>
      </trkpt>
      <trkpt lat="44.05343" lon="7.21678">
        <ele>1696</ele>
        <time>2015-10-28T16:08:37Z</time>
      </trkpt>
      <trkpt lat="44.05456" lon="7.21688">
        <ele>1704</ele>
        <time>2015-10-28T16:10:37Z</time>
      </trkpt>
      <trkpt lat="44.05493" lon="7.21731">
        <ele>1697</ele>
        <time>2015-10-28T16:12:37Z</time>
      </trkpt>
      <trkpt lat="44.05556" lon="7.21748">
        <ele>1708</ele>
        <time>2015-10-28T16:14:37Z</time>
      </trkpt>
      <trkpt lat="44.05584" lon="7.21832">
        <ele>1691</ele>
        <time>2015-10-28T16:16:37Z</time>
      </trkpt>
      <trkpt lat="44.0564" lon="7.21869">
        <ele>1698</ele>
        <time>2015-10-28T16:18:37Z</time>
      </trkpt>
      <trkpt lat="44.05661" lon="7.21942">
        <ele>1694</ele>
        <time>2015-10-28T16:20:37Z</time>
      </trkpt>
      <trkpt lat="44.0561" lon="7.22064">
        <ele>1674</ele>
        <time>2015-10-28T16:22:37Z</time>
      </trkpt>
      <trkpt lat="44.05559" lon="7.22188">
        <ele>1661</ele>
        <time>2015-10-28T16:24:37Z</time>
      </trkpt>
      <trkpt lat="44.05478" lon="7.22386">
        <ele>1634</ele>
        <time>2015-10-28T16:26:37Z</time>
      </trkpt>
      <trkpt lat="44.05488" lon="7.2242">
        <ele>1638</ele>
        <time>2015-10-28T16:28:37Z</time>
      </trkpt>
      <trkpt lat="44.05474" lon="7.22452">
        <ele>1628</ele>
        <time>2015-10-28T16:30:37Z</time>
      </trkpt>
      <trkpt lat="44.05533" lon="7.22452">
        <ele>1639</ele>
        <time>2015-10-28T16:32:37Z</time>
      </trkpt>
      <trkpt lat="44.05598" lon="7.22538">
        <ele>1621</ele>
        <time>2015-10-28T16:34:37Z</time>
      </trkpt>
      <trkpt lat="44.0564" lon="7.22607">
        <ele>1614</ele>
        <time>2015-10-28T16:36:37Z</time>
      </trkpt>
      <trkpt lat="44.05667" lon="7.22665">
        <ele>1608</ele>
        <time>2015-10-28T16:38:37Z</time>
      </trkpt>
      <trkpt lat="44.05715" lon="7.22669">
        <ele>1616</ele>
        <time>2015-10-28T16:40:37Z</time>
      </trkpt>
      <trkpt lat="44.05774" lon="7.22714">
        <ele>1614</ele>
        <time>2015-10-28T16:42:37Z</time>
      </trkpt>
      <trkpt lat="44.05815" lon="7.22716">
        <ele>1625</ele>
        <time>2015-10-28T16:44:37Z</time>
      </trkpt>
      <trkpt lat="44.05835" lon="7.22763">
        <ele>1615</ele>
        <time>2015-10-28T16:46:37Z</time>
      </trkpt>
      <trkpt lat="44.05902" lon="7.228">
        <ele>1623</ele>
        <time>2015-10-28T16:48:37Z</time>
      </trkpt>
      <trkpt lat="44.05966" lon="7.22853">
        <ele>1622</ele>
        <time>2015-10-28T16:50:37Z</time>
      </trkpt>
      <trkpt lat="44.06047" lon="7.22849">
        <ele>1639</ele>
        <time>2015-10-28T16:52:37Z</time>
      </trkpt>
      <trkpt lat="44.06057" lon="7.22787">
        <ele>1637</ele>
        <time>2015-10-28T16:54:37Z</time>
      </trkpt>
      <trkpt lat="44.06057" lon="7.22708">
        <ele>1631</ele>
        <time>2015-10-28T16:56:37Z</time>
      </trkpt>
      <trkpt lat="44.06045" lon="7.22656">
        <ele>1630</ele>
        <time>2015-10-28T16:58:37Z</time>
      </trkpt>
      <trkpt lat="44.0605" lon="7.22596">
        <ele>1621</ele>
        <time>2015-10-28T17:00:37Z</time>
      </trkpt>
      <trkpt lat="44.06074" lon="7.22491">
        <ele>1607</ele>
        <time>2015-10-28T17:02:37Z</time>
      </trkpt>
      <trkpt lat="44.06076" lon="7.2242">
        <ele>1606</ele>
        <time>2015-10-28T17:04:37Z</time>
      </trkpt>
      <trkpt lat="44.06124" lon="7.22281">
        <ele>1604</ele>
        <time>2015-10-28T17:06:37Z</time>
      </trkpt>
      <trkpt lat="44.06218" lon="7.22246">
        <ele>1584</ele>
        <time>2015-10-28T17:08:37Z</time>
      </trkpt>
      <trkpt lat="44.06267" lon="7.2216">
        <ele>1571</ele>
        <time>2015-10-28T17:10:37Z</time>
      </trkpt>
      <trkpt lat="44.06289" lon="7.2216">
        <ele>1564</ele>
        <time>2015-10-28T17:12:37Z</time>
      </trkpt>
      <trkpt lat="44.06324" lon="7.221">
        <ele>1558</ele>
        <time>2015-10-28T17:14:37Z</time>
      </trkpt>
      <trkpt lat="44.06355" lon="7.22047">
        <ele>1570</ele>
        <time>2015-10-28T17:16:37Z</time>
      </trkpt>
      <trkpt lat="44.06423" lon="7.22094">
        <ele>1571</ele>
        <time>2015-10-28T17:18:37Z</time>
      </trkpt>
      <trkpt lat="44.06477" lon="7.2212">
        <ele>1580</ele>
        <time>2015-10-28T17:20:37Z</time>
      </trkpt>
      <trkpt lat="44.06509" lon="7.22092">
        <ele>1586</ele>
        <time>2015-10-28T17:22:37Z</time>
      </trkpt>
      <trkpt lat="44.06545" lon="7.22085">
        <ele>1589</ele>
        <time>2015-10-28T17:24:37Z</time>
      </trkpt>
      <trkpt lat="44.06612" lon="7.22002">
        <ele>1572</ele>
        <time>2015-10-28T17:26:37Z</time>
      </trkpt>
      <trkpt lat="44.06702" lon="7.21935">
        <ele>1566</ele>
        <time>2015-10-28T17:28:37Z</time>
      </trkpt>
      <trkpt lat="44.06776" lon="7.2186">
        <ele>1552</ele>
        <time>2015-10-28T17:30:37Z</time>
      </trkpt>
      <trkpt lat="44.06868" lon="7.21847">
        <ele>1552</ele>
        <time>2015-10-28T17:32:37Z</time>
      </trkpt>
      <trkpt lat="44.06964" lon="7.21869">
        <ele>1543</ele>
        <time>2015-10-28T17:34:37Z</time>
      </trkpt>
      <trkpt lat="44.07023" lon="7.21918">
        <ele>1537</ele>
        <time>2015-10-28T17:36:37Z</time>
      </trkpt>
      <trkpt lat="44.07035" lon="7.21944">
        <ele>1537</ele>
        <time>2015-10-28T17:38:37Z</time>
      </trkpt>
      <trkpt lat="44.07069" lon="7.21961">
        <ele>1521</ele>
        <time>2015-10-28T17:40:37Z</time>
      </trkpt>
      <trkpt lat="44.07081" lon="7.22025">
        <ele>1520</ele>
        <time>2015-10-28T17:42:37Z</time>
      </trkpt>
      <trkpt lat="44.07087" lon="7.22122">
        <ele>1513</ele>
        <time>2015-10-28T17:44:37Z</time>
      </trkpt>
      <trkpt lat="44.07101" lon="7.22107">
        <ele>1513</ele>
        <time>2015-10-28T17:46:37Z</time>
      </trkpt>
    </trkseg>
  </trk>
</gpx>